Time,TemperatureF,DewpointF,PressureIn,WindDirection,WindDirectionDegrees,WindSpeedMPH,WindSpeedGustMPH,Humidity,HourlyPrecipIn,Conditions,Clouds,dailyrainin,SoftwareType,DateUTC
2013-04-25 00:03:00,40.0,34.0,30.17,South,184,2.0,3.0,79,0.00,,,0.45,,2013-04-25 04:03:00,
2013-04-25 00:13:00,40.0,34.0,30.17,South,184,2.0,3.0,79,0.00,,,0.45,,2013-04-25 04:13:00,
2013-04-25 00:23:00,40.0,34.0,30.17,SW,217,1.0,4.0,79,0.00,,,0.36,,2013-04-25 04:23:00,
2013-04-25 00:33:00,39.0,33.0,30.17,SSW,208,1.0,4.0,80,0.00,,,0.36,,2013-04-25 04:33:00,
2013-04-25 00:43:00,39.0,33.0,30.17,SSW,208,1.0,4.0,80,0.00,,,0.36,,2013-04-25 04:43:00,
2013-04-25 00:52:00,40.0,35.0,30.17,SSW,205,3.0,4.0,81,0.00,,,0.36,,2013-04-25 04:52:00,
2013-04-25 01:03:00,40.0,34.0,30.17,WSW,238,2.0,5.0,80,0.00,,,0.36,,2013-04-25 05:03:00,
2013-04-25 01:12:00,40.0,34.0,30.17,WSW,238,2.0,5.0,80,0.00,,,0.36,,2013-04-25 05:12:00,
2013-04-25 01:22:00,40.0,35.0,30.17,SW,219,1.0,4.0,81,0.00,,,0.26,,2013-04-25 05:22:00,
2013-04-25 01:32:00,40.0,35.0,30.17,SW,214,2.0,4.0,81,0.00,,,0.26,,2013-04-25 05:32:00,
2013-04-25 01:42:00,40.0,35.0,30.17,SW,214,2.0,4.0,81,0.00,,,0.26,,2013-04-25 05:42:00,
2013-04-25 01:52:00,40.0,35.0,30.17,SSW,209,3.0,5.0,81,0.00,,,0.26,,2013-04-25 05:52:00,
2013-04-25 02:02:00,39.0,34.0,30.17,WSW,237,2.0,4.0,81,0.00,,,0.26,,2013-04-25 06:02:00,
2013-04-25 02:12:00,39.0,34.0,30.17,WSW,237,2.0,4.0,81,0.00,,,0.26,,2013-04-25 06:12:00,
2013-04-25 02:22:00,39.0,34.0,30.16,SW,217,2.0,6.0,82,0.00,,,0.15,,2013-04-25 06:22:00,
2013-04-25 02:32:00,39.0,34.0,30.16,SSW,212,2.0,4.0,82,0.00,,,0.15,,2013-04-25 06:32:00,
2013-04-25 02:42:00,39.0,34.0,30.16,SSW,212,2.0,4.0,82,0.00,,,0.15,,2013-04-25 06:42:00,
2013-04-25 02:52:00,39.0,34.0,30.16,SW,225,3.0,4.0,82,0.00,,,0.15,,2013-04-25 06:52:00,
2013-04-25 03:02:00,39.0,34.0,30.16,SSW,210,4.0,6.0,83,0.00,,,0.15,,2013-04-25 07:02:00,
2013-04-25 03:12:00,39.0,34.0,30.16,SSW,210,4.0,6.0,83,0.00,,,0.15,,2013-04-25 07:12:00,
2013-04-25 03:22:00,39.0,34.0,30.15,South,183,2.0,5.0,82,0.00,,,0.09,,2013-04-25 07:22:00,
2013-04-25 03:32:00,39.0,34.0,30.14,South,181,2.0,4.0,83,0.00,,,0.09,,2013-04-25 07:32:00,
2013-04-25 03:42:00,39.0,34.0,30.14,South,181,2.0,4.0,83,0.00,,,0.09,,2013-04-25 07:42:00,
2013-04-25 03:52:00,39.0,34.0,30.15,SSW,212,2.0,5.0,82,0.00,,,0.09,,2013-04-25 07:52:00,
2013-04-25 04:02:00,39.0,34.0,30.16,SW,226,4.0,7.0,83,0.00,,,0.09,,2013-04-25 08:02:00,
2013-04-25 04:11:00,39.0,34.0,30.16,SW,226,4.0,7.0,83,0.00,,,0.09,,2013-04-25 08:11:00,
2013-04-25 04:22:00,39.0,34.0,30.15,SW,220,3.0,5.0,82,0.00,,,0.02,,2013-04-25 08:22:00,
2013-04-25 04:32:00,39.0,34.0,30.15,SSW,210,3.0,5.0,82,0.00,,,0.02,,2013-04-25 08:32:00,
2013-04-25 04:42:00,39.0,34.0,30.15,SSW,210,3.0,5.0,82,0.00,,,0.02,,2013-04-25 08:42:00,
2013-04-25 04:52:00,38.0,33.0,30.14,SSW,194,3.0,5.0,83,0.00,,,0.02,,2013-04-25 08:52:00,
2013-04-25 05:01:00,38.0,33.0,30.14,SSW,205,2.0,4.0,83,0.00,,,0.02,,2013-04-25 09:01:00,
2013-04-25 05:11:00,38.0,33.0,30.14,SSW,205,2.0,4.0,83,0.00,,,0.02,,2013-04-25 09:11:00,
2013-04-25 05:21:00,38.0,33.0,30.14,South,184,2.0,6.0,83,0.00,,,0.02,,2013-04-25 09:21:00,
2013-04-25 05:33:00,38.0,33.0,30.14,SSW,213,2.0,6.0,83,0.00,,,0.02,,2013-04-25 09:33:00,
2013-04-25 05:42:00,38.0,33.0,30.14,SSW,213,2.0,6.0,83,0.00,,,0.02,,2013-04-25 09:42:00,
2013-04-25 05:53:00,38.0,33.0,30.15,SSW,204,4.0,10.0,83,0.00,,,0.02,,2013-04-25 09:53:00,
2013-04-25 06:02:00,39.0,34.0,30.15,SSW,205,4.0,11.0,82,0.00,,,0.02,,2013-04-25 10:02:00,
2013-04-25 06:12:00,39.0,34.0,30.15,SSW,205,4.0,11.0,82,0.00,,,0.02,,2013-04-25 10:12:00,
2013-04-25 06:22:00,39.0,34.0,30.14,South,179,3.0,8.0,82,0.00,,,0.02,,2013-04-25 10:22:00,
2013-04-25 06:33:00,39.0,34.0,30.14,SSW,203,5.0,9.0,82,0.00,,,0.02,,2013-04-25 10:33:00,
2013-04-25 06:42:00,39.0,34.0,30.14,SSW,203,5.0,9.0,82,0.00,,,0.02,,2013-04-25 10:42:00,
2013-04-25 06:53:00,38.0,33.0,30.14,SSE,168,4.0,7.0,83,0.00,,,0.02,,2013-04-25 10:53:00,
2013-04-25 07:02:00,38.0,34.0,30.14,South,173,3.0,5.0,84,0.00,,,0.02,,2013-04-25 11:02:00,
2013-04-25 07:12:00,38.0,34.0,30.14,South,173,3.0,5.0,84,0.00,,,0.02,,2013-04-25 11:12:00,
2013-04-25 07:22:00,38.0,33.0,30.14,South,179,3.0,8.0,83,0.00,,,0.02,,2013-04-25 11:22:00,
2013-04-25 07:32:00,38.0,34.0,30.14,SSE,166,4.0,7.0,84,0.00,,,0.02,,2013-04-25 11:32:00,
2013-04-25 07:42:00,38.0,34.0,30.14,SSE,166,4.0,7.0,84,0.00,,,0.02,,2013-04-25 11:42:00,
2013-04-25 07:52:00,38.0,33.0,30.14,South,190,3.0,5.0,83,0.00,,,0.02,,2013-04-25 11:52:00,
2013-04-25 08:01:00,40.0,35.0,30.14,SSE,162,4.0,8.0,82,0.00,,,0.02,,2013-04-25 12:01:00,
2013-04-25 08:12:00,40.0,35.0,30.14,SSE,162,4.0,8.0,82,0.00,,,0.02,,2013-04-25 12:12:00,
2013-04-25 08:21:00,41.0,35.0,30.14,SW,218,6.0,11.0,78,0.00,,,0.02,,2013-04-25 12:21:00,
2013-04-25 08:32:00,41.0,34.0,30.14,South,173,7.0,12.0,77,0.00,,,0.02,,2013-04-25 12:32:00,
2013-04-25 08:42:00,41.0,34.0,30.14,South,173,7.0,12.0,77,0.00,,,0.02,,2013-04-25 12:42:00,
2013-04-25 08:52:00,42.0,35.0,30.14,SW,224,8.0,12.0,75,0.00,,,0.02,,2013-04-25 12:52:00,
2013-04-25 09:02:00,42.0,35.0,30.14,SW,214,6.0,11.0,75,0.00,,,0.02,,2013-04-25 13:02:00,
2013-04-25 09:11:00,42.0,35.0,30.14,SW,214,6.0,11.0,75,0.00,,,0.02,,2013-04-25 13:11:00,
2013-04-25 09:21:00,43.0,35.0,30.14,SSW,212,6.0,11.0,74,0.00,,,0.02,,2013-04-25 13:21:00,
2013-04-25 09:32:00,42.0,35.0,30.15,WSW,248,6.0,12.0,76,0.00,,,0.02,,2013-04-25 13:32:00,
2013-04-25 09:42:00,42.0,35.0,30.15,WSW,248,6.0,12.0,76,0.00,,,0.02,,2013-04-25 13:42:00,
2013-04-25 09:53:00,42.0,35.0,30.15,SSW,211,7.0,12.0,77,0.00,,,0.02,,2013-04-25 13:53:00,
2013-04-25 10:02:00,42.0,35.0,30.16,WSW,245,8.0,14.0,76,0.00,,,0.02,,2013-04-25 14:02:00,
2013-04-25 10:11:00,42.0,35.0,30.16,WSW,245,8.0,14.0,76,0.00,,,0.02,,2013-04-25 14:11:00,
2013-04-25 10:21:00,43.0,36.0,30.15,SW,223,7.0,14.0,76,0.00,,,0.02,,2013-04-25 14:21:00,
2013-04-25 10:32:00,44.0,36.0,30.15,WSW,245,8.0,13.0,74,0.00,,,0.02,,2013-04-25 14:32:00,
2013-04-25 10:42:00,44.0,36.0,30.15,WSW,245,8.0,13.0,74,0.00,,,0.02,,2013-04-25 14:42:00,
2013-04-25 10:52:00,46.0,37.0,30.15,SSW,203,7.0,13.0,72,0.00,,,0.02,,2013-04-25 14:52:00,
2013-04-25 11:02:00,47.0,38.0,30.16,SW,236,9.0,18.0,72,0.00,,,0.02,,2013-04-25 15:02:00,
2013-04-25 11:11:00,47.0,38.0,30.16,SW,236,9.0,18.0,72,0.00,,,0.02,,2013-04-25 15:11:00,
2013-04-25 11:21:00,47.0,38.0,30.17,WSW,240,6.0,14.0,71,0.00,,,0.02,,2013-04-25 15:21:00,
2013-04-25 11:33:00,47.0,37.0,30.18,West,271,8.0,15.0,69,0.00,,,0.02,,2013-04-25 15:33:00,
2013-04-25 11:42:00,47.0,37.0,30.18,West,271,8.0,15.0,69,0.00,,,0.02,,2013-04-25 15:42:00,
2013-04-25 11:53:00,47.0,38.0,30.17,WNW,283,9.0,14.0,70,0.00,,,0.02,,2013-04-25 15:53:00,
2013-04-25 12:02:00,46.0,36.0,30.18,WNW,295,7.0,16.0,69,0.00,,,0.02,,2013-04-25 16:02:00,
2013-04-25 12:13:00,46.0,36.0,30.18,WNW,295,7.0,16.0,69,0.00,,,0.02,,2013-04-25 16:13:00,
2013-04-25 12:24:00,46.0,36.0,30.19,WNW,292,8.0,16.0,68,0.01,,,0.02,,2013-04-25 16:24:00,
2013-04-25 12:33:00,49.0,34.0,30.19,WSW,243,10.0,15.0,56,0.01,,,0.02,,2013-04-25 16:33:00,
2013-04-25 12:43:00,49.0,34.0,30.19,WSW,243,10.0,15.0,56,0.01,,,0.02,,2013-04-25 16:43:00,
2013-04-25 12:53:00,49.0,33.0,30.19,West,281,10.0,17.0,54,0.01,,,0.02,,2013-04-25 16:53:00,
2013-04-25 13:02:00,47.0,33.0,30.20,WNW,293,10.0,16.0,59,0.01,,,0.02,,2013-04-25 17:02:00,
2013-04-25 13:11:00,47.0,33.0,30.20,WNW,293,10.0,16.0,59,0.01,,,0.02,,2013-04-25 17:11:00,
2013-04-25 13:22:00,49.0,34.0,30.21,WNW,296,9.0,16.0,56,0.00,,,0.02,,2013-04-25 17:22:00,
2013-04-25 13:32:00,50.0,33.0,30.20,SW,231,7.0,17.0,52,0.00,,,0.02,,2013-04-25 17:32:00,
2013-04-25 13:42:00,50.0,33.0,30.20,SW,231,7.0,17.0,52,0.00,,,0.02,,2013-04-25 17:42:00,
2013-04-25 13:53:00,50.0,30.0,30.21,West,276,8.0,14.0,46,0.00,,,0.02,,2013-04-25 17:53:00,
2013-04-25 14:01:00,50.0,29.0,30.21,WNW,300,7.0,13.0,44,0.00,,,0.02,,2013-04-25 18:01:00,
2013-04-25 14:11:00,50.0,29.0,30.21,WNW,300,7.0,13.0,44,0.00,,,0.02,,2013-04-25 18:11:00,
2013-04-25 14:22:00,49.0,33.0,30.22,WNW,293,12.0,20.0,54,0.00,,,0.02,,2013-04-25 18:22:00,
2013-04-25 14:32:00,50.0,34.0,30.22,NW,315,11.0,16.0,54,0.00,,,0.02,,2013-04-25 18:32:00,
2013-04-25 14:43:00,50.0,34.0,30.22,NW,315,11.0,16.0,54,0.00,,,0.02,,2013-04-25 18:43:00,
2013-04-25 14:53:00,50.0,32.0,30.23,NNW,327,11.0,16.0,50,0.00,,,0.02,,2013-04-25 18:53:00,
2013-04-25 15:02:00,50.0,34.0,30.23,NNW,329,10.0,16.0,53,0.00,,,0.02,,2013-04-25 19:02:00,
2013-04-25 15:12:00,50.0,34.0,30.23,NNW,329,10.0,16.0,53,0.00,,,0.02,,2013-04-25 19:12:00,
2013-04-25 15:21:00,50.0,34.0,30.24,West,262,8.0,15.0,55,0.00,,,0.01,,2013-04-25 19:21:00,
2013-04-25 15:32:00,49.0,35.0,30.24,WNW,300,4.0,10.0,59,0.00,,,0.01,,2013-04-25 19:32:00,
2013-04-25 15:42:00,49.0,35.0,30.24,WNW,300,4.0,10.0,59,0.00,,,0.01,,2013-04-25 19:42:00,
2013-04-25 15:52:00,49.0,34.0,30.25,WSW,247,5.0,12.0,57,0.00,,,0.01,,2013-04-25 19:52:00,
2013-04-25 16:02:00,49.0,33.0,30.24,WNW,295,5.0,12.0,54,0.00,,,0.01,,2013-04-25 20:02:00,
2013-04-25 16:11:00,49.0,33.0,30.24,WNW,295,5.0,12.0,54,0.00,,,0.01,,2013-04-25 20:11:00,
2013-04-25 16:22:00,50.0,33.0,30.25,West,280,5.0,11.0,51,0.00,,,0.01,,2013-04-25 20:22:00,
2013-04-25 16:32:00,50.0,33.0,30.25,WNW,293,6.0,11.0,52,0.00,,,0.01,,2013-04-25 20:32:00,
2013-04-25 16:42:00,50.0,33.0,30.25,WNW,293,6.0,11.0,52,0.00,,,0.01,,2013-04-25 20:42:00,
2013-04-25 16:52:00,51.0,33.0,30.25,SW,234,5.0,13.0,50,0.00,,,0.01,,2013-04-25 20:52:00,
2013-04-25 17:01:00,50.0,31.0,30.25,West,278,6.0,14.0,48,0.00,,,0.01,,2013-04-25 21:01:00,
2013-04-25 17:11:00,50.0,31.0,30.25,West,278,6.0,14.0,48,0.00,,,0.01,,2013-04-25 21:11:00,
2013-04-25 17:22:00,50.0,33.0,30.25,NW,316,5.0,12.0,51,0.00,,,0.01,,2013-04-25 21:22:00,
2013-04-25 17:33:00,51.0,34.0,30.26,WNW,301,5.0,11.0,53,0.00,,,0.01,,2013-04-25 21:33:00,
2013-04-25 17:42:00,51.0,34.0,30.26,WNW,301,5.0,11.0,53,0.00,,,0.01,,2013-04-25 21:42:00,
2013-04-25 17:53:00,50.0,34.0,30.27,NW,307,6.0,9.0,53,0.00,,,0.01,,2013-04-25 21:53:00,
2013-04-25 18:03:00,50.0,32.0,30.28,WNW,302,7.0,11.0,50,0.00,,,0.01,,2013-04-25 22:03:00,
2013-04-25 18:12:00,50.0,32.0,30.28,WNW,302,7.0,11.0,50,0.00,,,0.01,,2013-04-25 22:12:00,
2013-04-25 18:22:00,50.0,32.0,30.28,West,268,5.0,9.0,50,0.00,,,0.01,,2013-04-25 22:22:00,
2013-04-25 18:33:00,49.0,32.0,30.27,NW,313,4.0,6.0,52,0.00,,,0.01,,2013-04-25 22:33:00,
2013-04-25 18:42:00,49.0,32.0,30.27,NW,313,4.0,6.0,52,0.00,,,0.01,,2013-04-25 22:42:00,
2013-04-25 18:53:00,50.0,33.0,30.29,NW,309,5.0,9.0,52,0.00,,,0.01,,2013-04-25 22:53:00,
2013-04-25 19:02:00,49.0,33.0,30.29,WNW,303,5.0,9.0,54,0.00,,,0.01,,2013-04-25 23:02:00,
2013-04-25 19:12:00,49.0,33.0,30.29,WNW,303,5.0,9.0,54,0.00,,,0.01,,2013-04-25 23:12:00,
2013-04-25 19:22:00,50.0,34.0,30.29,NW,321,3.0,7.0,54,0.00,,,0.01,,2013-04-25 23:22:00,
2013-04-25 19:32:00,51.0,34.0,30.29,NW,323,4.0,8.0,52,0.00,,,0.01,,2013-04-25 23:32:00,
2013-04-25 19:42:00,51.0,34.0,30.29,NW,323,4.0,8.0,52,0.00,,,0.01,,2013-04-25 23:42:00,
2013-04-25 19:52:00,50.0,33.0,30.29,NW,311,2.0,5.0,51,0.00,,,0.01,,2013-04-25 23:52:00,
2013-04-25 20:01:00,49.0,34.0,30.30,NW,310,4.0,7.0,55,0.00,,,0.01,,2013-04-26 00:01:00,
2013-04-25 20:11:00,49.0,34.0,30.30,NW,310,4.0,7.0,55,0.00,,,0.01,,2013-04-26 00:11:00,
2013-04-25 20:21:00,49.0,35.0,30.30,NW,318,2.0,4.0,58,0.00,,,0.01,,2013-04-26 00:21:00,
2013-04-25 20:32:00,48.0,35.0,30.31,NNW,331,0.0,3.0,61,0.00,,,0.01,,2013-04-26 00:32:00,
2013-04-25 20:42:00,48.0,35.0,30.31,NNW,331,0.0,3.0,61,0.00,,,0.01,,2013-04-26 00:42:00,
2013-04-25 20:52:00,47.0,36.0,30.31,NNW,331,0.0,1.0,65,0.00,,,0.01,,2013-04-26 00:52:00,
2013-04-25 21:01:00,46.0,35.0,30.31,NNW,331,0.0,0.0,65,0.00,,,0.01,,2013-04-26 01:01:00,
2013-04-25 21:11:00,46.0,35.0,30.31,NNW,331,0.0,0.0,65,0.00,,,0.01,,2013-04-26 01:11:00,
2013-04-25 21:21:00,44.0,36.0,30.31,NNW,331,0.0,1.0,73,0.00,,,0.01,,2013-04-26 01:21:00,
2013-04-25 21:32:00,42.0,38.0,30.32,WNW,297,0.0,0.0,84,0.00,,,0.01,,2013-04-26 01:32:00,
2013-04-25 21:42:00,42.0,38.0,30.32,WNW,297,0.0,0.0,84,0.00,,,0.01,,2013-04-26 01:42:00,
2013-04-25 21:52:00,42.0,37.0,30.33,NW,309,0.0,0.0,81,0.00,,,0.01,,2013-04-26 01:52:00,
2013-04-25 22:02:00,41.0,37.0,30.33,NW,309,0.0,0.0,85,0.00,,,0.01,,2013-04-26 02:02:00,
2013-04-25 22:12:00,41.0,37.0,30.33,NW,309,0.0,0.0,85,0.00,,,0.01,,2013-04-26 02:12:00,
2013-04-25 22:21:00,41.0,37.0,30.34,NW,309,0.0,0.0,87,0.00,,,0.01,,2013-04-26 02:21:00,
2013-04-25 22:32:00,40.0,37.0,30.35,NW,305,0.0,1.0,90,0.00,,,0.01,,2013-04-26 02:32:00,
2013-04-25 22:42:00,40.0,37.0,30.35,NW,305,0.0,1.0,90,0.00,,,0.01,,2013-04-26 02:42:00,
2013-04-25 22:52:00,40.0,38.0,30.35,NW,305,0.0,0.0,91,0.00,,,0.01,,2013-04-26 02:52:00,
2013-04-25 23:01:00,39.0,36.0,30.35,NW,305,0.0,0.0,89,0.00,,,0.01,,2013-04-26 03:01:00,
2013-04-25 23:11:00,39.0,36.0,30.35,NW,305,0.0,0.0,89,0.00,,,0.01,,2013-04-26 03:11:00,
2013-04-25 23:22:00,39.0,36.0,30.35,NW,305,0.0,0.0,90,0.00,,,0.01,,2013-04-26 03:22:00,
2013-04-25 23:33:00,37.0,35.0,30.36,NW,305,0.0,0.0,92,0.00,,,0.01,,2013-04-26 03:33:00,
2013-04-25 23:43:00,37.0,35.0,30.36,NW,305,0.0,0.0,92,0.00,,,0.01,,2013-04-26 03:43:00,
2013-04-25 23:53:00,37.0,35.0,30.37,NW,305,0.0,0.0,93,0.00,,,0.01,,2013-04-26 03:53:00,